sensor_id;sensor_type;location;lat;lon;timestamp;P1;durP1;ratioP1;P2;durP2;ratioP2
44430;SDS011;30135;47.866;-4.222;2023-10-19T00:01:10;38.85;;;5.85;;
44430;SDS011;30135;47.866;-4.222;2023-10-19T00:06:03;28.70;;;3.95;;
44430;SDS011;30135;47.866;-4.222;2023-10-19T00:08:30;47.97;;;4.18;;
44430;SDS011;30135;47.866;-4.222;2023-10-19T00:11:12;37.15;;;4.28;;
44430;SDS011;30135;47.866;-4.222;2023-10-19T00:13:47;29.27;;;4.20;;
44430;SDS011;30135;47.866;-4.222;2023-10-19T00:16:19;39.33;;;4.53;;
44430;SDS011;30135;47.866;-4.222;2023-10-19T00:18:51;38.47;;;5.10;;
44430;SDS011;30135;47.866;-4.222;2023-10-19T00:21:18;63.53;;;7.45;;
44430;SDS011;30135;47.866;-4.222;2023-10-19T00:23:54;36.47;;;4.45;;
44430;SDS011;30135;47.866;-4.222;2023-10-19T00:26:30;32.28;;;4.70;;
44430;SDS011;30135;47.866;-4.222;2023-10-19T00:28:56;56.28;;;5.18;;
44430;SDS011;30135;47.866;-4.222;2023-10-19T00:31:23;37.08;;;4.82;;
44430;SDS011;30135;47.866;-4.222;2023-10-19T00:33:53;46.05;;;7.47;;
44430;SDS011;30135;47.866;-4.222;2023-10-19T00:36:20;45.00;;;6.18;;
44430;SDS011;30135;47.866;-4.222;2023-10-19T00:38:47;47.45;;;7.18;;
44430;SDS011;30135;47.866;-4.222;2023-10-19T00:41:14;37.75;;;6.60;;
44430;SDS011;30135;47.866;-4.222;2023-10-19T00:43:52;36.33;;;5.03;;
44430;SDS011;30135;47.866;-4.222;2023-10-19T00:46:48;40.80;;;6.00;;
44430;SDS011;30135;47.866;-4.222;2023-10-19T00:49:28;48.05;;;5.57;;
44430;SDS011;30135;47.866;-4.222;2023-10-19T00:51:56;35.75;;;5.00;;
44430;SDS011;30135;47.866;-4.222;2023-10-19T00:54:34;44.42;;;6.05;;
44430;SDS011;30135;47.866;-4.222;2023-10-19T00:57:02;38.85;;;4.60;;
44430;SDS011;30135;47.866;-4.222;2023-10-19T00:59:52;40.70;;;5.82;;
44430;SDS011;30135;47.866;-4.222;2023-10-19T01:02:19;42.55;;;5.78;;
44430;SDS011;30135;47.866;-4.222;2023-10-19T01:04:48;32.70;;;5.53;;
44430;SDS011;30135;47.866;-4.222;2023-10-19T01:07:38;28.73;;;5.88;;
44430;SDS011;30135;47.866;-4.222;2023-10-19T01:10:06;43.80;;;5.40;;
44430;SDS011;30135;47.866;-4.222;2023-10-19T01:12:46;41.05;;;6.35;;
44430;SDS011;30135;47.866;-4.222;2023-10-19T01:15:13;45.53;;;4.05;;
44430;SDS011;30135;47.866;-4.222;2023-10-19T01:17:43;31.23;;;5.47;;
44430;SDS011;30135;47.866;-4.222;2023-10-19T01:20:16;31.20;;;4.53;;
44430;SDS011;30135;47.866;-4.222;2023-10-19T01:23:09;43.47;;;8.30;;
44430;SDS011;30135;47.866;-4.222;2023-10-19T01:25:45;34.83;;;5.05;;
44430;SDS011;30135;47.866;-4.222;2023-10-19T01:28:22;31.02;;;4.68;;
44430;SDS011;30135;47.866;-4.222;2023-10-19T01:31:04;25.05;;;4.43;;
44430;SDS011;30135;47.866;-4.222;2023-10-19T01:33:32;31.25;;;4.50;;
44430;SDS011;30135;47.866;-4.222;2023-10-19T01:36:01;40.92;;;4.60;;
44430;SDS011;30135;47.866;-4.222;2023-10-19T01:38:36;31.30;;;5.05;;
44430;SDS011;30135;47.866;-4.222;2023-10-19T01:41:06;28.58;;;3.67;;
44430;SDS011;30135;47.866;-4.222;2023-10-19T01:43:40;37.22;;;6.13;;
44430;SDS011;30135;47.866;-4.222;2023-10-19T01:46:09;65.28;;;5.65;;
44430;SDS011;30135;47.866;-4.222;2023-10-19T01:48:41;28.75;;;5.50;;
44430;SDS011;30135;47.866;-4.222;2023-10-19T01:51:09;25.98;;;3.65;;
44430;SDS011;30135;47.866;-4.222;2023-10-19T01:53:37;34.33;;;4.57;;
44430;SDS011;30135;47.866;-4.222;2023-10-19T01:56:09;38.60;;;4.30;;
44430;SDS011;30135;47.866;-4.222;2023-10-19T01:58:40;26.20;;;4.00;;
44430;SDS011;30135;47.866;-4.222;2023-10-19T02:01:09;22.65;;;3.55;;
44430;SDS011;30135;47.866;-4.222;2023-10-19T02:03:38;42.38;;;7.22;;
44430;SDS011;30135;47.866;-4.222;2023-10-19T02:06:08;39.28;;;6.00;;
44430;SDS011;30135;47.866;-4.222;2023-10-19T02:08:50;46.65;;;5.97;;
44430;SDS011;30135;47.866;-4.222;2023-10-19T02:11:21;43.95;;;5.40;;
44430;SDS011;30135;47.866;-4.222;2023-10-19T02:13:50;34.90;;;6.35;;
44430;SDS011;30135;47.866;-4.222;2023-10-19T02:16:19;40.35;;;5.53;;
44430;SDS011;30135;47.866;-4.222;2023-10-19T02:18:50;41.70;;;5.97;;
44430;SDS011;30135;47.866;-4.222;2023-10-19T02:21:17;46.13;;;4.88;;
44430;SDS011;30135;47.866;-4.222;2023-10-19T02:23:58;68.38;;;6.47;;
44430;SDS011;30135;47.866;-4.222;2023-10-19T02:26:24;32.33;;;5.50;;
44430;SDS011;30135;47.866;-4.222;2023-10-19T02:28:52;32.70;;;5.47;;
44430;SDS011;30135;47.866;-4.222;2023-10-19T02:31:19;61.00;;;6.53;;
44430;SDS011;30135;47.866;-4.222;2023-10-19T02:33:50;44.30;;;6.40;;
44430;SDS011;30135;47.866;-4.222;2023-10-19T02:36:17;32.80;;;6.43;;
44430;SDS011;30135;47.866;-4.222;2023-10-19T02:38:45;30.50;;;5.18;;
44430;SDS011;30135;47.866;-4.222;2023-10-19T02:41:18;39.28;;;5.60;;
44430;SDS011;30135;47.866;-4.222;2023-10-19T02:43:45;45.88;;;6.18;;
44430;SDS011;30135;47.866;-4.222;2023-10-19T02:46:27;41.25;;;7.13;;
44430;SDS011;30135;47.866;-4.222;2023-10-19T02:48:54;44.53;;;6.95;;
44430;SDS011;30135;47.866;-4.222;2023-10-19T02:51:20;41.03;;;5.95;;
44430;SDS011;30135;47.866;-4.222;2023-10-19T02:53:46;46.25;;;8.18;;
44430;SDS011;30135;47.866;-4.222;2023-10-19T02:56:12;44.00;;;6.35;;
44430;SDS011;30135;47.866;-4.222;2023-10-19T02:58:49;48.03;;;7.43;;
44430;SDS011;30135;47.866;-4.222;2023-10-19T03:01:20;40.28;;;6.40;;
44430;SDS011;30135;47.866;-4.222;2023-10-19T03:03:50;48.72;;;6.30;;
44430;SDS011;30135;47.866;-4.222;2023-10-19T03:06:22;47.17;;;7.40;;
44430;SDS011;30135;47.866;-4.222;2023-10-19T03:08:49;55.22;;;6.32;;
44430;SDS011;30135;47.866;-4.222;2023-10-19T03:11:22;48.88;;;5.85;;
44430;SDS011;30135;47.866;-4.222;2023-10-19T03:13:53;39.92;;;6.00;;
44430;SDS011;30135;47.866;-4.222;2023-10-19T03:16:20;37.58;;;6.97;;
44430;SDS011;30135;47.866;-4.222;2023-10-19T03:18:47;46.80;;;6.22;;
44430;SDS011;30135;47.866;-4.222;2023-10-19T03:21:13;46.28;;;5.53;;
44430;SDS011;30135;47.866;-4.222;2023-10-19T03:23:41;39.10;;;5.82;;
44430;SDS011;30135;47.866;-4.222;2023-10-19T03:26:08;50.22;;;6.13;;
44430;SDS011;30135;47.866;-4.222;2023-10-19T03:28:47;52.35;;;7.57;;
44430;SDS011;30135;47.866;-4.222;2023-10-19T03:31:20;45.33;;;5.63;;
44430;SDS011;30135;47.866;-4.222;2023-10-19T03:33:50;40.60;;;4.97;;
44430;SDS011;30135;47.866;-4.222;2023-10-19T03:36:23;32.97;;;4.80;;
44430;SDS011;30135;47.866;-4.222;2023-10-19T03:38:51;39.10;;;5.35;;
44430;SDS011;30135;47.866;-4.222;2023-10-19T03:41:21;36.47;;;5.70;;
44430;SDS011;30135;47.866;-4.222;2023-10-19T03:43:51;39.42;;;6.07;;
44430;SDS011;30135;47.866;-4.222;2023-10-19T03:46:19;50.72;;;7.60;;
44430;SDS011;30135;47.866;-4.222;2023-10-19T03:48:59;38.47;;;4.65;;
44430;SDS011;30135;47.866;-4.222;2023-10-19T03:51:38;49.00;;;6.15;;
44430;SDS011;30135;47.866;-4.222;2023-10-19T03:54:05;39.38;;;6.22;;
44430;SDS011;30135;47.866;-4.222;2023-10-19T03:56:48;37.65;;;5.00;;
44430;SDS011;30135;47.866;-4.222;2023-10-19T03:59:16;49.70;;;6.85;;
44430;SDS011;30135;47.866;-4.222;2023-10-19T04:01:42;42.58;;;6.05;;
44430;SDS011;30135;47.866;-4.222;2023-10-19T04:04:09;39.20;;;5.78;;
44430;SDS011;30135;47.866;-4.222;2023-10-19T04:06:36;36.42;;;6.05;;
44430;SDS011;30135;47.866;-4.222;2023-10-19T04:09:03;49.05;;;6.25;;
44430;SDS011;30135;47.866;-4.222;2023-10-19T04:11:33;40.00;;;5.80;;
44430;SDS011;30135;47.866;-4.222;2023-10-19T04:14:13;27.67;;;5.15;;
44430;SDS011;30135;47.866;-4.222;2023-10-19T04:16:45;40.88;;;5.97;;
44430;SDS011;30135;47.866;-4.222;2023-10-19T04:19:13;23.38;;;4.43;;
44430;SDS011;30135;47.866;-4.222;2023-10-19T04:21:40;36.88;;;5.10;;
44430;SDS011;30135;47.866;-4.222;2023-10-19T04:24:12;39.72;;;5.47;;
44430;SDS011;30135;47.866;-4.222;2023-10-19T04:26:39;43.58;;;6.68;;
44430;SDS011;30135;47.866;-4.222;2023-10-19T04:29:06;52.50;;;7.40;;
44430;SDS011;30135;47.866;-4.222;2023-10-19T04:31:36;51.08;;;6.15;;
44430;SDS011;30135;47.866;-4.222;2023-10-19T04:34:17;36.57;;;5.60;;
44430;SDS011;30135;47.866;-4.222;2023-10-19T04:36:46;34.70;;;5.40;;
44430;SDS011;30135;47.866;-4.222;2023-10-19T04:39:16;30.85;;;6.47;;
44430;SDS011;30135;47.866;-4.222;2023-10-19T04:41:44;30.50;;;4.10;;
44430;SDS011;30135;47.866;-4.222;2023-10-19T04:44:13;33.78;;;5.07;;
44430;SDS011;30135;47.866;-4.222;2023-10-19T04:46:40;29.38;;;4.22;;
44430;SDS011;30135;47.866;-4.222;2023-10-19T04:49:07;35.72;;;7.10;;
44430;SDS011;30135;47.866;-4.222;2023-10-19T04:51:33;31.88;;;5.57;;
44430;SDS011;30135;47.866;-4.222;2023-10-19T04:54:04;51.33;;;7.63;;
44430;SDS011;30135;47.866;-4.222;2023-10-19T04:56:33;52.80;;;6.18;;
44430;SDS011;30135;47.866;-4.222;2023-10-19T04:59:01;33.67;;;5.10;;
44430;SDS011;30135;47.866;-4.222;2023-10-19T05:01:28;25.10;;;4.90;;
44430;SDS011;30135;47.866;-4.222;2023-10-19T05:03:54;36.65;;;5.68;;
44430;SDS011;30135;47.866;-4.222;2023-10-19T05:06:20;44.22;;;5.13;;
44430;SDS011;30135;47.866;-4.222;2023-10-19T05:08:47;36.40;;;4.05;;
44430;SDS011;30135;47.866;-4.222;2023-10-19T05:11:13;42.17;;;5.55;;
44430;SDS011;30135;47.866;-4.222;2023-10-19T05:13:39;43.95;;;4.50;;
44430;SDS011;30135;47.866;-4.222;2023-10-19T05:16:05;39.53;;;4.63;;
44430;SDS011;30135;47.866;-4.222;2023-10-19T05:18:32;36.70;;;4.53;;
44430;SDS011;30135;47.866;-4.222;2023-10-19T05:20:59;49.75;;;5.95;;
44430;SDS011;30135;47.866;-4.222;2023-10-19T05:23:26;36.60;;;5.03;;
44430;SDS011;30135;47.866;-4.222;2023-10-19T05:25:59;42.67;;;5.55;;
44430;SDS011;30135;47.866;-4.222;2023-10-19T05:28:27;32.67;;;4.13;;
44430;SDS011;30135;47.866;-4.222;2023-10-19T05:30:54;39.67;;;5.30;;
44430;SDS011;30135;47.866;-4.222;2023-10-19T05:33:20;51.58;;;6.32;;
44430;SDS011;30135;47.866;-4.222;2023-10-19T05:35:49;42.38;;;5.45;;
44430;SDS011;30135;47.866;-4.222;2023-10-19T05:38:16;38.35;;;6.03;;
44430;SDS011;30135;47.866;-4.222;2023-10-19T05:40:44;39.80;;;5.93;;
44430;SDS011;30135;47.866;-4.222;2023-10-19T05:43:10;47.13;;;4.90;;
44430;SDS011;30135;47.866;-4.222;2023-10-19T05:45:37;24.08;;;4.00;;
44430;SDS011;30135;47.866;-4.222;2023-10-19T05:48:04;25.50;;;4.07;;
44430;SDS011;30135;47.866;-4.222;2023-10-19T05:50:33;26.38;;;2.97;;
44430;SDS011;30135;47.866;-4.222;2023-10-19T05:53:01;24.20;;;4.05;;
44430;SDS011;30135;47.866;-4.222;2023-10-19T05:55:28;20.40;;;3.53;;
44430;SDS011;30135;47.866;-4.222;2023-10-19T05:57:55;26.17;;;2.80;;
44430;SDS011;30135;47.866;-4.222;2023-10-19T06:00:21;29.48;;;3.67;;
44430;SDS011;30135;47.866;-4.222;2023-10-19T06:02:50;36.08;;;4.10;;
44430;SDS011;30135;47.866;-4.222;2023-10-19T06:05:18;24.17;;;4.53;;
44430;SDS011;30135;47.866;-4.222;2023-10-19T06:07:44;35.38;;;3.28;;
44430;SDS011;30135;47.866;-4.222;2023-10-19T06:10:13;51.58;;;5.15;;
44430;SDS011;30135;47.866;-4.222;2023-10-19T06:12:42;14.52;;;2.45;;
44430;SDS011;30135;47.866;-4.222;2023-10-19T06:15:10;17.27;;;2.78;;
44430;SDS011;30135;47.866;-4.222;2023-10-19T06:17:40;13.15;;;2.05;;
44430;SDS011;30135;47.866;-4.222;2023-10-19T06:20:08;16.38;;;3.00;;
44430;SDS011;30135;47.866;-4.222;2023-10-19T06:22:48;16.90;;;2.88;;
44430;SDS011;30135;47.866;-4.222;2023-10-19T06:25:19;16.75;;;3.33;;
44430;SDS011;30135;47.866;-4.222;2023-10-19T06:27:47;17.15;;;2.25;;
44430;SDS011;30135;47.866;-4.222;2023-10-19T06:30:16;23.95;;;2.63;;
44430;SDS011;30135;47.866;-4.222;2023-10-19T06:32:46;28.95;;;3.22;;
44430;SDS011;30135;47.866;-4.222;2023-10-19T06:35:15;39.13;;;5.25;;
44430;SDS011;30135;47.866;-4.222;2023-10-19T06:37:43;27.05;;;4.47;;
44430;SDS011;30135;47.866;-4.222;2023-10-19T06:40:09;27.55;;;4.55;;
44430;SDS011;30135;47.866;-4.222;2023-10-19T06:42:37;43.80;;;4.28;;
44430;SDS011;30135;47.866;-4.222;2023-10-19T06:45:04;26.00;;;5.38;;
44430;SDS011;30135;47.866;-4.222;2023-10-19T06:47:32;30.30;;;4.55;;
44430;SDS011;30135;47.866;-4.222;2023-10-19T06:50:03;22.45;;;3.35;;
44430;SDS011;30135;47.866;-4.222;2023-10-19T06:52:33;33.22;;;5.30;;
44430;SDS011;30135;47.866;-4.222;2023-10-19T06:55:01;38.05;;;2.90;;
44430;SDS011;30135;47.866;-4.222;2023-10-19T06:57:48;28.85;;;5.03;;
44430;SDS011;30135;47.866;-4.222;2023-10-19T07:00:21;40.60;;;4.70;;
44430;SDS011;30135;47.866;-4.222;2023-10-19T07:02:53;18.85;;;3.60;;
44430;SDS011;30135;47.866;-4.222;2023-10-19T07:05:21;22.75;;;4.25;;
44430;SDS011;30135;47.866;-4.222;2023-10-19T07:07:49;34.72;;;5.43;;
44430;SDS011;30135;47.866;-4.222;2023-10-19T07:10:18;33.47;;;4.65;;
44430;SDS011;30135;47.866;-4.222;2023-10-19T07:12:45;30.83;;;4.75;;
44430;SDS011;30135;47.866;-4.222;2023-10-19T07:15:13;28.48;;;4.68;;
44430;SDS011;30135;47.866;-4.222;2023-10-19T07:17:40;34.22;;;5.80;;
44430;SDS011;30135;47.866;-4.222;2023-10-19T07:20:07;39.58;;;4.50;;
44430;SDS011;30135;47.866;-4.222;2023-10-19T07:22:47;42.88;;;5.18;;
44430;SDS011;30135;47.866;-4.222;2023-10-19T07:25:13;31.40;;;4.93;;
44430;SDS011;30135;47.866;-4.222;2023-10-19T07:27:39;38.55;;;4.38;;
44430;SDS011;30135;47.866;-4.222;2023-10-19T07:30:08;36.22;;;5.78;;
44430;SDS011;30135;47.866;-4.222;2023-10-19T07:32:34;36.42;;;4.15;;
44430;SDS011;30135;47.866;-4.222;2023-10-19T07:35:01;40.55;;;7.10;;
44430;SDS011;30135;47.866;-4.222;2023-10-19T07:37:27;32.33;;;4.95;;
44430;SDS011;30135;47.866;-4.222;2023-10-19T07:39:54;39.30;;;5.63;;
44430;SDS011;30135;47.866;-4.222;2023-10-19T07:42:22;41.08;;;5.50;;
44430;SDS011;30135;47.866;-4.222;2023-10-19T07:44:49;41.28;;;5.68;;
44430;SDS011;30135;47.866;-4.222;2023-10-19T07:47:15;29.38;;;4.38;;
44430;SDS011;30135;47.866;-4.222;2023-10-19T07:49:41;32.42;;;4.53;;
44430;SDS011;30135;47.866;-4.222;2023-10-19T07:52:08;40.97;;;4.50;;
44430;SDS011;30135;47.866;-4.222;2023-10-19T07:54:39;35.17;;;4.75;;
44430;SDS011;30135;47.866;-4.222;2023-10-19T07:57:05;28.77;;;5.50;;
44430;SDS011;30135;47.866;-4.222;2023-10-19T07:59:32;47.92;;;4.07;;
44430;SDS011;30135;47.866;-4.222;2023-10-19T08:01:58;30.95;;;4.22;;
44430;SDS011;30135;47.866;-4.222;2023-10-19T08:04:29;32.17;;;5.90;;
44430;SDS011;30135;47.866;-4.222;2023-10-19T08:06:56;49.78;;;7.93;;
44430;SDS011;30135;47.866;-4.222;2023-10-19T08:09:23;44.80;;;6.90;;
44430;SDS011;30135;47.866;-4.222;2023-10-19T08:11:57;26.25;;;5.85;;
44430;SDS011;30135;47.866;-4.222;2023-10-19T08:14:25;34.00;;;4.60;;
44430;SDS011;30135;47.866;-4.222;2023-10-19T08:16:51;48.17;;;4.97;;
44430;SDS011;30135;47.866;-4.222;2023-10-19T08:19:18;39.05;;;5.20;;
44430;SDS011;30135;47.866;-4.222;2023-10-19T08:21:45;38.15;;;4.00;;
44430;SDS011;30135;47.866;-4.222;2023-10-19T08:24:12;38.33;;;4.75;;
44430;SDS011;30135;47.866;-4.222;2023-10-19T08:26:43;29.45;;;3.97;;
44430;SDS011;30135;47.866;-4.222;2023-10-19T08:31:39;21.80;;;3.80;;
44430;SDS011;30135;47.866;-4.222;2023-10-19T08:34:10;14.93;;;2.65;;
44430;SDS011;30135;47.866;-4.222;2023-10-19T08:36:39;24.13;;;3.60;;
44430;SDS011;30135;47.866;-4.222;2023-10-19T08:39:07;19.13;;;2.47;;
44430;SDS011;30135;47.866;-4.222;2023-10-19T08:41:37;16.15;;;2.72;;
44430;SDS011;30135;47.866;-4.222;2023-10-19T08:44:05;15.43;;;1.95;;
44430;SDS011;30135;47.866;-4.222;2023-10-19T08:46:41;18.10;;;3.25;;
44430;SDS011;30135;47.866;-4.222;2023-10-19T08:49:13;17.48;;;2.60;;
44430;SDS011;30135;47.866;-4.222;2023-10-19T08:54:10;33.65;;;2.40;;
44430;SDS011;30135;47.866;-4.222;2023-10-19T08:56:38;16.73;;;2.53;;
44430;SDS011;30135;47.866;-4.222;2023-10-19T08:59:06;24.17;;;3.03;;
44430;SDS011;30135;47.866;-4.222;2023-10-19T09:04:02;20.33;;;2.40;;
44430;SDS011;30135;47.866;-4.222;2023-10-19T09:06:35;33.50;;;3.63;;
44430;SDS011;30135;47.866;-4.222;2023-10-19T09:09:13;22.73;;;2.65;;
44430;SDS011;30135;47.866;-4.222;2023-10-19T09:11:44;28.00;;;2.75;;
44430;SDS011;30135;47.866;-4.222;2023-10-19T09:14:14;16.33;;;3.17;;
44430;SDS011;30135;47.866;-4.222;2023-10-19T09:16:54;26.50;;;3.67;;
44430;SDS011;30135;47.866;-4.222;2023-10-19T09:22:12;31.35;;;4.22;;
44430;SDS011;30135;47.866;-4.222;2023-10-19T09:24:46;22.52;;;2.78;;
44430;SDS011;30135;47.866;-4.222;2023-10-19T09:27:18;27.17;;;3.75;;
44430;SDS011;30135;47.866;-4.222;2023-10-19T09:29:46;33.10;;;3.78;;
44430;SDS011;30135;47.866;-4.222;2023-10-19T09:32:13;24.17;;;5.25;;
44430;SDS011;30135;47.866;-4.222;2023-10-19T09:34:40;38.28;;;4.88;;
44430;SDS011;30135;47.866;-4.222;2023-10-19T09:37:08;29.13;;;4.25;;
44430;SDS011;30135;47.866;-4.222;2023-10-19T09:39:36;31.88;;;4.43;;
44430;SDS011;30135;47.866;-4.222;2023-10-19T09:42:06;35.38;;;5.25;;
44430;SDS011;30135;47.866;-4.222;2023-10-19T09:44:42;19.75;;;3.72;;
44430;SDS011;30135;47.866;-4.222;2023-10-19T09:47:45;31.17;;;4.90;;
44430;SDS011;30135;47.866;-4.222;2023-10-19T09:50:04;30.83;;;4.00;;
44430;SDS011;30135;47.866;-4.222;2023-10-19T09:52:32;16.77;;;3.17;;
44430;SDS011;30135;47.866;-4.222;2023-10-19T09:55:22;18.67;;;3.47;;
44430;SDS011;30135;47.866;-4.222;2023-10-19T09:57:58;13.63;;;3.35;;
44430;SDS011;30135;47.866;-4.222;2023-10-19T10:00:32;24.40;;;3.05;;
44430;SDS011;30135;47.866;-4.222;2023-10-19T10:02:59;20.90;;;3.08;;
44430;SDS011;30135;47.866;-4.222;2023-10-19T10:10:47;31.00;;;4.53;;
44430;SDS011;30135;47.866;-4.222;2023-10-19T10:15:51;20.10;;;2.83;;
44430;SDS011;30135;47.866;-4.222;2023-10-19T10:18:29;23.40;;;2.55;;
44430;SDS011;30135;47.866;-4.222;2023-10-19T10:23:41;32.28;;;5.80;;
44430;SDS011;30135;47.866;-4.222;2023-10-19T10:26:21;33.83;;;5.00;;
44430;SDS011;30135;47.866;-4.222;2023-10-19T10:29:23;29.60;;;3.75;;
44430;SDS011;30135;47.866;-4.222;2023-10-19T10:31:49;29.63;;;3.90;;
44430;SDS011;30135;47.866;-4.222;2023-10-19T10:37:06;36.15;;;4.47;;
44430;SDS011;30135;47.866;-4.222;2023-10-19T10:39:34;49.40;;;5.80;;
44430;SDS011;30135;47.866;-4.222;2023-10-19T10:42:03;52.97;;;7.10;;
44430;SDS011;30135;47.866;-4.222;2023-10-19T10:44:41;39.33;;;5.13;;
44430;SDS011;30135;47.866;-4.222;2023-10-19T10:47:11;37.28;;;5.38;;
44430;SDS011;30135;47.866;-4.222;2023-10-19T10:49:49;44.05;;;5.30;;
44430;SDS011;30135;47.866;-4.222;2023-10-19T10:52:37;34.22;;;5.40;;
44430;SDS011;30135;47.866;-4.222;2023-10-19T10:55:11;49.78;;;7.20;;
44430;SDS011;30135;47.866;-4.222;2023-10-19T10:57:40;28.35;;;5.45;;
44430;SDS011;30135;47.866;-4.222;2023-10-19T11:00:11;29.42;;;4.43;;
44430;SDS011;30135;47.866;-4.222;2023-10-19T11:02:46;38.50;;;4.43;;
44430;SDS011;30135;47.866;-4.222;2023-10-19T11:05:24;27.73;;;3.47;;
44430;SDS011;30135;47.866;-4.222;2023-10-19T11:08:10;38.35;;;5.43;;
44430;SDS011;30135;47.866;-4.222;2023-10-19T11:10:41;26.27;;;4.13;;
44430;SDS011;30135;47.866;-4.222;2023-10-19T11:13:14;23.80;;;4.18;;
44430;SDS011;30135;47.866;-4.222;2023-10-19T11:15:49;21.77;;;2.60;;
44430;SDS011;30135;47.866;-4.222;2023-10-19T11:21:00;17.27;;;3.10;;
44430;SDS011;30135;47.866;-4.222;2023-10-19T11:26:15;26.58;;;3.00;;
44430;SDS011;30135;47.866;-4.222;2023-10-19T11:28:46;22.67;;;3.30;;
44430;SDS011;30135;47.866;-4.222;2023-10-19T11:31:22;24.02;;;2.58;;
44430;SDS011;30135;47.866;-4.222;2023-10-19T11:33:50;20.77;;;3.60;;
44430;SDS011;30135;47.866;-4.222;2023-10-19T11:36:18;22.35;;;2.75;;
44430;SDS011;30135;47.866;-4.222;2023-10-19T11:38:47;14.80;;;2.60;;
44430;SDS011;30135;47.866;-4.222;2023-10-19T11:41:16;27.83;;;2.53;;
44430;SDS011;30135;47.866;-4.222;2023-10-19T11:43:44;25.00;;;2.85;;
44430;SDS011;30135;47.866;-4.222;2023-10-19T11:46:11;15.65;;;3.00;;
44430;SDS011;30135;47.866;-4.222;2023-10-19T11:48:39;18.00;;;2.15;;
44430;SDS011;30135;47.866;-4.222;2023-10-19T11:51:08;27.58;;;3.83;;
44430;SDS011;30135;47.866;-4.222;2023-10-19T11:53:36;19.08;;;4.10;;
44430;SDS011;30135;47.866;-4.222;2023-10-19T11:56:04;16.05;;;2.88;;
44430;SDS011;30135;47.866;-4.222;2023-10-19T11:58:32;14.10;;;2.55;;
44430;SDS011;30135;47.866;-4.222;2023-10-19T12:01:06;20.45;;;1.63;;
44430;SDS011;30135;47.866;-4.222;2023-10-19T12:03:37;11.63;;;1.48;;
44430;SDS011;30135;47.866;-4.222;2023-10-19T12:08:33;10.57;;;1.10;;
44430;SDS011;30135;47.866;-4.222;2023-10-19T12:11:01;19.10;;;0.98;;
44430;SDS011;30135;47.866;-4.222;2023-10-19T12:13:29;13.35;;;2.08;;
44430;SDS011;30135;47.866;-4.222;2023-10-19T12:15:56;9.13;;;1.67;;
44430;SDS011;30135;47.866;-4.222;2023-10-19T12:18:26;12.30;;;1.15;;
44430;SDS011;30135;47.866;-4.222;2023-10-19T12:20:53;17.15;;;2.15;;
44430;SDS011;30135;47.866;-4.222;2023-10-19T12:23:24;23.15;;;2.85;;
44430;SDS011;30135;47.866;-4.222;2023-10-19T12:25:51;25.38;;;3.28;;
44430;SDS011;30135;47.866;-4.222;2023-10-19T12:28:18;14.82;;;1.55;;
44430;SDS011;30135;47.866;-4.222;2023-10-19T12:30:45;19.48;;;2.33;;
44430;SDS011;30135;47.866;-4.222;2023-10-19T12:33:12;17.92;;;2.42;;
44430;SDS011;30135;47.866;-4.222;2023-10-19T12:35:39;18.80;;;2.05;;
44430;SDS011;30135;47.866;-4.222;2023-10-19T12:38:24;22.58;;;2.00;;
44430;SDS011;30135;47.866;-4.222;2023-10-19T12:40:51;19.13;;;1.95;;
44430;SDS011;30135;47.866;-4.222;2023-10-19T12:43:17;16.58;;;2.55;;
44430;SDS011;30135;47.866;-4.222;2023-10-19T12:45:44;19.35;;;2.38;;
44430;SDS011;30135;47.866;-4.222;2023-10-19T12:48:16;19.70;;;2.35;;
44430;SDS011;30135;47.866;-4.222;2023-10-19T12:50:42;14.05;;;1.38;;
44430;SDS011;30135;47.866;-4.222;2023-10-19T12:53:08;16.45;;;1.20;;
44430;SDS011;30135;47.866;-4.222;2023-10-19T12:55:35;17.23;;;2.28;;
44430;SDS011;30135;47.866;-4.222;2023-10-19T12:58:05;18.05;;;1.40;;
44430;SDS011;30135;47.866;-4.222;2023-10-19T13:00:37;15.20;;;1.73;;
44430;SDS011;30135;47.866;-4.222;2023-10-19T13:03:08;21.35;;;1.98;;
44430;SDS011;30135;47.866;-4.222;2023-10-19T13:05:39;27.50;;;2.85;;
44430;SDS011;30135;47.866;-4.222;2023-10-19T13:08:06;15.52;;;2.42;;
44430;SDS011;30135;47.866;-4.222;2023-10-19T13:10:34;26.33;;;3.47;;
44430;SDS011;30135;47.866;-4.222;2023-10-19T13:13:04;30.48;;;2.88;;
44430;SDS011;30135;47.866;-4.222;2023-10-19T13:15:34;17.52;;;2.95;;
44430;SDS011;30135;47.866;-4.222;2023-10-19T13:18:02;19.00;;;2.28;;
44430;SDS011;30135;47.866;-4.222;2023-10-19T13:20:29;36.67;;;4.43;;
44430;SDS011;30135;47.866;-4.222;2023-10-19T13:23:05;23.35;;;2.42;;
44430;SDS011;30135;47.866;-4.222;2023-10-19T13:25:36;24.27;;;3.30;;
44430;SDS011;30135;47.866;-4.222;2023-10-19T13:28:16;12.90;;;3.10;;
44430;SDS011;30135;47.866;-4.222;2023-10-19T13:30:47;20.48;;;3.42;;
44430;SDS011;30135;47.866;-4.222;2023-10-19T13:33:15;19.95;;;2.65;;
44430;SDS011;30135;47.866;-4.222;2023-10-19T13:35:43;23.33;;;3.22;;
44430;SDS011;30135;47.866;-4.222;2023-10-19T13:38:11;21.98;;;3.60;;
44430;SDS011;30135;47.866;-4.222;2023-10-19T13:40:39;16.83;;;2.92;;
44430;SDS011;30135;47.866;-4.222;2023-10-19T13:43:06;36.38;;;4.05;;
44430;SDS011;30135;47.866;-4.222;2023-10-19T13:45:34;23.63;;;3.63;;
44430;SDS011;30135;47.866;-4.222;2023-10-19T13:48:02;18.90;;;2.90;;
44430;SDS011;30135;47.866;-4.222;2023-10-19T13:50:30;20.70;;;3.88;;
44430;SDS011;30135;47.866;-4.222;2023-10-19T13:52:57;27.10;;;3.28;;
44430;SDS011;30135;47.866;-4.222;2023-10-19T13:55:30;24.42;;;2.90;;
44430;SDS011;30135;47.866;-4.222;2023-10-19T13:57:56;24.95;;;3.53;;
44430;SDS011;30135;47.866;-4.222;2023-10-19T14:00:23;32.78;;;3.60;;
44430;SDS011;30135;47.866;-4.222;2023-10-19T14:02:55;16.80;;;2.45;;
44430;SDS011;30135;47.866;-4.222;2023-10-19T14:05:26;16.23;;;1.90;;
44430;SDS011;30135;47.866;-4.222;2023-10-19T14:07:55;19.05;;;2.30;;
44430;SDS011;30135;47.866;-4.222;2023-10-19T14:10:21;13.05;;;1.40;;
44430;SDS011;30135;47.866;-4.222;2023-10-19T14:12:50;17.52;;;2.80;;
44430;SDS011;30135;47.866;-4.222;2023-10-19T14:15:16;16.08;;;3.10;;
44430;SDS011;30135;47.866;-4.222;2023-10-19T14:17:45;10.55;;;2.10;;
44430;SDS011;30135;47.866;-4.222;2023-10-19T14:20:14;25.83;;;2.13;;
44430;SDS011;30135;47.866;-4.222;2023-10-19T14:22:43;15.07;;;1.67;;
44430;SDS011;30135;47.866;-4.222;2023-10-19T14:25:12;22.83;;;1.70;;
44430;SDS011;30135;47.866;-4.222;2023-10-19T14:27:42;25.85;;;3.03;;
44430;SDS011;30135;47.866;-4.222;2023-10-19T14:32:44;22.42;;;1.88;;
44430;SDS011;30135;47.866;-4.222;2023-10-19T14:35:15;30.75;;;3.50;;
44430;SDS011;30135;47.866;-4.222;2023-10-19T14:37:47;11.13;;;1.80;;
44430;SDS011;30135;47.866;-4.222;2023-10-19T14:40:19;18.13;;;2.65;;
44430;SDS011;30135;47.866;-4.222;2023-10-19T14:42:54;24.50;;;2.08;;
44430;SDS011;30135;47.866;-4.222;2023-10-19T14:45:25;30.38;;;3.35;;
44430;SDS011;30135;47.866;-4.222;2023-10-19T14:47:55;16.80;;;1.83;;
44430;SDS011;30135;47.866;-4.222;2023-10-19T14:50:24;21.10;;;2.13;;
44430;SDS011;30135;47.866;-4.222;2023-10-19T14:52:52;17.13;;;2.28;;
44430;SDS011;30135;47.866;-4.222;2023-10-19T14:57:48;13.30;;;1.25;;
44430;SDS011;30135;47.866;-4.222;2023-10-19T15:00:20;17.45;;;2.55;;
44430;SDS011;30135;47.866;-4.222;2023-10-19T15:02:54;23.58;;;2.00;;
44430;SDS011;30135;47.866;-4.222;2023-10-19T15:05:24;9.32;;;1.73;;
44430;SDS011;30135;47.866;-4.222;2023-10-19T15:07:53;16.08;;;1.23;;
44430;SDS011;30135;47.866;-4.222;2023-10-19T15:10:23;14.88;;;2.33;;
44430;SDS011;30135;47.866;-4.222;2023-10-19T15:12:54;17.83;;;2.35;;
44430;SDS011;30135;47.866;-4.222;2023-10-19T15:15:24;18.85;;;2.90;;
44430;SDS011;30135;47.866;-4.222;2023-10-19T15:17:52;27.50;;;2.33;;